sensor_id;sensor_type;location;lat;lon;timestamp;P1;durP1;ratioP1;P2;durP2;ratioP2
16689;SDS011;8458;52.220;9.884;2022-08-03T00:00:52;2.00;;;1.90;;
16689;SDS011;8458;52.220;9.884;2022-08-03T00:03:19;1.70;;;1.60;;
16689;SDS011;8458;52.220;9.884;2022-08-03T00:05:47;1.70;;;1.60;;
16689;SDS011;8458;52.220;9.884;2022-08-03T00:08:13;1.90;;;1.80;;
16689;SDS011;8458;52.220;9.884;2022-08-03T00:10:40;2.10;;;1.70;;
16689;SDS011;8458;52.220;9.884;2022-08-03T00:13:06;1.80;;;1.70;;
16689;SDS011;8458;52.220;9.884;2022-08-03T00:15:33;1.70;;;1.60;;
16689;SDS011;8458;52.220;9.884;2022-08-03T00:18:00;2.07;;;1.90;;
16689;SDS011;8458;52.220;9.884;2022-08-03T00:20:27;2.00;;;1.90;;
16689;SDS011;8458;52.220;9.884;2022-08-03T00:22:55;1.80;;;1.70;;
16689;SDS011;8458;52.220;9.884;2022-08-03T00:25:21;1.80;;;1.70;;
16689;SDS011;8458;52.220;9.884;2022-08-03T00:27:48;2.00;;;1.80;;
16689;SDS011;8458;52.220;9.884;2022-08-03T00:30:14;1.63;;;1.53;;
16689;SDS011;8458;52.220;9.884;2022-08-03T00:32:41;1.60;;;1.50;;
16689;SDS011;8458;52.220;9.884;2022-08-03T00:35:07;1.70;;;1.60;;
16689;SDS011;8458;52.220;9.884;2022-08-03T00:37:34;1.73;;;1.63;;
16689;SDS011;8458;52.220;9.884;2022-08-03T00:40:02;4.17;;;1.90;;
16689;SDS011;8458;52.220;9.884;2022-08-03T00:42:29;1.80;;;1.70;;
16689;SDS011;8458;52.220;9.884;2022-08-03T00:44:56;1.70;;;1.60;;
16689;SDS011;8458;52.220;9.884;2022-08-03T00:47:23;2.07;;;1.90;;
16689;SDS011;8458;52.220;9.884;2022-08-03T00:49:50;2.10;;;2.00;;
16689;SDS011;8458;52.220;9.884;2022-08-03T00:52:16;2.73;;;1.93;;
16689;SDS011;8458;52.220;9.884;2022-08-03T00:54:43;2.23;;;2.03;;
16689;SDS011;8458;52.220;9.884;2022-08-03T00:57:11;1.80;;;1.67;;
16689;SDS011;8458;52.220;9.884;2022-08-03T00:59:37;2.17;;;2.07;;
16689;SDS011;8458;52.220;9.884;2022-08-03T01:02:04;2.23;;;2.00;;
16689;SDS011;8458;52.220;9.884;2022-08-03T01:04:31;1.93;;;1.80;;
16689;SDS011;8458;52.220;9.884;2022-08-03T01:06:59;1.80;;;1.70;;
16689;SDS011;8458;52.220;9.884;2022-08-03T01:09:34;1.97;;;1.87;;
16689;SDS011;8458;52.220;9.884;2022-08-03T01:12:12;2.27;;;1.73;;
16689;SDS011;8458;52.220;9.884;2022-08-03T01:14:45;2.07;;;1.97;;
16689;SDS011;8458;52.220;9.884;2022-08-03T01:17:23;1.97;;;1.63;;
16689;SDS011;8458;52.220;9.884;2022-08-03T01:19:55;1.97;;;1.70;;
16689;SDS011;8458;52.220;9.884;2022-08-03T01:22:37;1.73;;;1.63;;
16689;SDS011;8458;52.220;9.884;2022-08-03T01:25:16;2.03;;;1.83;;
16689;SDS011;8458;52.220;9.884;2022-08-03T01:27:57;2.10;;;1.90;;
16689;SDS011;8458;52.220;9.884;2022-08-03T01:30:36;2.03;;;1.93;;
16689;SDS011;8458;52.220;9.884;2022-08-03T01:33:08;2.10;;;1.90;;
16689;SDS011;8458;52.220;9.884;2022-08-03T01:35:42;2.20;;;1.90;;
16689;SDS011;8458;52.220;9.884;2022-08-03T01:38:12;1.67;;;1.57;;
16689;SDS011;8458;52.220;9.884;2022-08-03T01:40:43;2.03;;;1.93;;
16689;SDS011;8458;52.220;9.884;2022-08-03T01:43:13;2.03;;;1.93;;
16689;SDS011;8458;52.220;9.884;2022-08-03T01:45:44;2.27;;;2.17;;
16689;SDS011;8458;52.220;9.884;2022-08-03T01:48:11;2.30;;;2.20;;
16689;SDS011;8458;52.220;9.884;2022-08-03T01:50:42;2.47;;;2.37;;
16689;SDS011;8458;52.220;9.884;2022-08-03T01:53:12;2.50;;;2.40;;
16689;SDS011;8458;52.220;9.884;2022-08-03T01:55:40;4.37;;;2.00;;
16689;SDS011;8458;52.220;9.884;2022-08-03T01:58:09;1.97;;;1.87;;
16689;SDS011;8458;52.220;9.884;2022-08-03T02:00:38;2.57;;;2.00;;
16689;SDS011;8458;52.220;9.884;2022-08-03T02:03:09;2.37;;;2.17;;
16689;SDS011;8458;52.220;9.884;2022-08-03T02:05:38;2.70;;;2.50;;
16689;SDS011;8458;52.220;9.884;2022-08-03T02:08:07;2.57;;;2.10;;
16689;SDS011;8458;52.220;9.884;2022-08-03T02:10:36;2.23;;;2.13;;
16689;SDS011;8458;52.220;9.884;2022-08-03T02:13:04;2.10;;;2.00;;
16689;SDS011;8458;52.220;9.884;2022-08-03T02:15:34;2.47;;;2.33;;
16689;SDS011;8458;52.220;9.884;2022-08-03T02:18:02;2.40;;;2.20;;
16689;SDS011;8458;52.220;9.884;2022-08-03T02:20:33;2.13;;;2.03;;
16689;SDS011;8458;52.220;9.884;2022-08-03T02:23:03;2.10;;;2.00;;
16689;SDS011;8458;52.220;9.884;2022-08-03T02:25:30;2.10;;;2.00;;
16689;SDS011;8458;52.220;9.884;2022-08-03T02:28:01;1.87;;;1.77;;
16689;SDS011;8458;52.220;9.884;2022-08-03T02:30:33;1.90;;;1.80;;
16689;SDS011;8458;52.220;9.884;2022-08-03T02:33:02;2.30;;;2.10;;
16689;SDS011;8458;52.220;9.884;2022-08-03T02:35:32;2.00;;;1.90;;
16689;SDS011;8458;52.220;9.884;2022-08-03T02:38:02;2.47;;;2.10;;
16689;SDS011;8458;52.220;9.884;2022-08-03T02:40:30;2.40;;;2.20;;
16689;SDS011;8458;52.220;9.884;2022-08-03T02:42:59;2.13;;;1.93;;
16689;SDS011;8458;52.220;9.884;2022-08-03T02:45:28;2.13;;;2.03;;
16689;SDS011;8458;52.220;9.884;2022-08-03T02:47:59;2.00;;;1.90;;
16689;SDS011;8458;52.220;9.884;2022-08-03T02:50:28;2.20;;;1.80;;
16689;SDS011;8458;52.220;9.884;2022-08-03T02:52:57;2.17;;;2.00;;
16689;SDS011;8458;52.220;9.884;2022-08-03T02:55:26;2.43;;;2.20;;
16689;SDS011;8458;52.220;9.884;2022-08-03T02:57:54;2.23;;;2.13;;
16689;SDS011;8458;52.220;9.884;2022-08-03T03:00:22;2.47;;;2.37;;
16689;SDS011;8458;52.220;9.884;2022-08-03T03:02:49;2.00;;;1.90;;
16689;SDS011;8458;52.220;9.884;2022-08-03T03:05:17;2.07;;;1.97;;
16689;SDS011;8458;52.220;9.884;2022-08-03T03:07:44;2.30;;;2.20;;
16689;SDS011;8458;52.220;9.884;2022-08-03T03:10:12;2.00;;;1.90;;
16689;SDS011;8458;52.220;9.884;2022-08-03T03:12:39;2.50;;;2.30;;
16689;SDS011;8458;52.220;9.884;2022-08-03T03:15:08;5.83;;;2.60;;
16689;SDS011;8458;52.220;9.884;2022-08-03T03:17:36;2.53;;;2.07;;
16689;SDS011;8458;52.220;9.884;2022-08-03T03:20:05;4.90;;;2.60;;
16689;SDS011;8458;52.220;9.884;2022-08-03T03:22:33;2.00;;;1.90;;
16689;SDS011;8458;52.220;9.884;2022-08-03T03:25:00;2.40;;;2.20;;
16689;SDS011;8458;52.220;9.884;2022-08-03T03:27:28;2.40;;;2.20;;
16689;SDS011;8458;52.220;9.884;2022-08-03T03:29:55;2.33;;;2.23;;
16689;SDS011;8458;52.220;9.884;2022-08-03T03:32:23;2.70;;;2.30;;
16689;SDS011;8458;52.220;9.884;2022-08-03T03:34:51;2.30;;;2.20;;
16689;SDS011;8458;52.220;9.884;2022-08-03T03:37:19;2.40;;;2.30;;
16689;SDS011;8458;52.220;9.884;2022-08-03T03:39:45;2.20;;;2.10;;
16689;SDS011;8458;52.220;9.884;2022-08-03T03:42:12;2.13;;;2.03;;
16689;SDS011;8458;52.220;9.884;2022-08-03T03:44:40;2.90;;;2.33;;
16689;SDS011;8458;52.220;9.884;2022-08-03T03:47:06;2.53;;;2.40;;
16689;SDS011;8458;52.220;9.884;2022-08-03T03:49:33;2.53;;;2.30;;
16689;SDS011;8458;52.220;9.884;2022-08-03T03:52:01;2.30;;;2.10;;
16689;SDS011;8458;52.220;9.884;2022-08-03T03:54:37;2.30;;;1.97;;
16689;SDS011;8458;52.220;9.884;2022-08-03T03:57:04;2.40;;;2.30;;
16689;SDS011;8458;52.220;9.884;2022-08-03T03:59:31;2.70;;;2.60;;
16689;SDS011;8458;52.220;9.884;2022-08-03T04:01:59;2.43;;;2.27;;
16689;SDS011;8458;52.220;9.884;2022-08-03T04:04:25;3.37;;;2.50;;
16689;SDS011;8458;52.220;9.884;2022-08-03T04:07:09;2.17;;;2.07;;
16689;SDS011;8458;52.220;9.884;2022-08-03T04:09:53;2.00;;;1.90;;
16689;SDS011;8458;52.220;9.884;2022-08-03T04:12:39;2.20;;;2.10;;
16689;SDS011;8458;52.220;9.884;2022-08-03T04:15:06;2.30;;;2.20;;
16689;SDS011;8458;52.220;9.884;2022-08-03T04:17:35;2.23;;;2.10;;
16689;SDS011;8458;52.220;9.884;2022-08-03T04:20:02;2.27;;;2.07;;
16689;SDS011;8458;52.220;9.884;2022-08-03T04:22:30;2.50;;;2.30;;
16689;SDS011;8458;52.220;9.884;2022-08-03T04:25:00;2.03;;;1.93;;
16689;SDS011;8458;52.220;9.884;2022-08-03T04:27:31;2.03;;;1.93;;
16689;SDS011;8458;52.220;9.884;2022-08-03T04:30:05;1.97;;;1.87;;
16689;SDS011;8458;52.220;9.884;2022-08-03T04:32:34;2.30;;;2.20;;
16689;SDS011;8458;52.220;9.884;2022-08-03T04:35:04;2.07;;;1.87;;
16689;SDS011;8458;52.220;9.884;2022-08-03T04:37:35;2.17;;;1.97;;
16689;SDS011;8458;52.220;9.884;2022-08-03T04:40:05;2.30;;;2.20;;
16689;SDS011;8458;52.220;9.884;2022-08-03T04:42:34;2.27;;;2.17;;
16689;SDS011;8458;52.220;9.884;2022-08-03T04:45:03;2.20;;;2.10;;
16689;SDS011;8458;52.220;9.884;2022-08-03T04:47:32;2.70;;;2.23;;
16689;SDS011;8458;52.220;9.884;2022-08-03T04:50:00;2.33;;;2.23;;
16689;SDS011;8458;52.220;9.884;2022-08-03T04:52:27;2.27;;;2.17;;
16689;SDS011;8458;52.220;9.884;2022-08-03T04:54:54;2.30;;;2.20;;
16689;SDS011;8458;52.220;9.884;2022-08-03T04:57:20;2.30;;;2.10;;
16689;SDS011;8458;52.220;9.884;2022-08-03T04:59:47;2.70;;;2.10;;
16689;SDS011;8458;52.220;9.884;2022-08-03T05:02:16;2.23;;;2.10;;
16689;SDS011;8458;52.220;9.884;2022-08-03T05:04:43;2.10;;;2.00;;
16689;SDS011;8458;52.220;9.884;2022-08-03T05:07:11;2.70;;;2.50;;
16689;SDS011;8458;52.220;9.884;2022-08-03T05:09:38;2.00;;;1.90;;
16689;SDS011;8458;52.220;9.884;2022-08-03T05:12:05;2.50;;;2.30;;
16689;SDS011;8458;52.220;9.884;2022-08-03T05:14:32;2.40;;;2.20;;
16689;SDS011;8458;52.220;9.884;2022-08-03T05:17:01;3.80;;;2.37;;
16689;SDS011;8458;52.220;9.884;2022-08-03T05:19:27;2.50;;;2.30;;
16689;SDS011;8458;52.220;9.884;2022-08-03T05:21:53;2.10;;;2.00;;
16689;SDS011;8458;52.220;9.884;2022-08-03T05:24:21;2.30;;;2.00;;
16689;SDS011;8458;52.220;9.884;2022-08-03T05:26:48;2.27;;;2.10;;
16689;SDS011;8458;52.220;9.884;2022-08-03T05:29:15;2.53;;;2.33;;
16689;SDS011;8458;52.220;9.884;2022-08-03T05:31:41;2.13;;;2.03;;
16689;SDS011;8458;52.220;9.884;2022-08-03T05:34:08;2.13;;;2.03;;
16689;SDS011;8458;52.220;9.884;2022-08-03T05:36:34;2.80;;;2.60;;
16689;SDS011;8458;52.220;9.884;2022-08-03T05:39:01;2.00;;;1.90;;
16689;SDS011;8458;52.220;9.884;2022-08-03T05:41:29;2.07;;;1.97;;
16689;SDS011;8458;52.220;9.884;2022-08-03T05:43:55;2.27;;;2.13;;
16689;SDS011;8458;52.220;9.884;2022-08-03T05:46:22;2.73;;;1.90;;
16689;SDS011;8458;52.220;9.884;2022-08-03T05:48:48;2.10;;;2.00;;
16689;SDS011;8458;52.220;9.884;2022-08-03T05:51:15;2.03;;;1.93;;
16689;SDS011;8458;52.220;9.884;2022-08-03T05:53:41;1.90;;;1.80;;
16689;SDS011;8458;52.220;9.884;2022-08-03T05:56:08;2.53;;;1.63;;
16689;SDS011;8458;52.220;9.884;2022-08-03T05:58:37;2.00;;;1.80;;
16689;SDS011;8458;52.220;9.884;2022-08-03T06:01:04;1.93;;;1.70;;
16689;SDS011;8458;52.220;9.884;2022-08-03T06:03:30;2.27;;;2.00;;
16689;SDS011;8458;52.220;9.884;2022-08-03T06:05:57;1.47;;;1.37;;
16689;SDS011;8458;52.220;9.884;2022-08-03T06:08:23;1.53;;;1.43;;
16689;SDS011;8458;52.220;9.884;2022-08-03T06:10:50;2.00;;;1.90;;
16689;SDS011;8458;52.220;9.884;2022-08-03T06:13:17;2.40;;;1.80;;
16689;SDS011;8458;52.220;9.884;2022-08-03T06:15:44;2.27;;;1.50;;
16689;SDS011;8458;52.220;9.884;2022-08-03T06:18:11;1.70;;;1.60;;
16689;SDS011;8458;52.220;9.884;2022-08-03T06:20:37;1.33;;;1.33;;
16689;SDS011;8458;52.220;9.884;2022-08-03T06:23:04;1.77;;;1.63;;
16689;SDS011;8458;52.220;9.884;2022-08-03T06:25:31;2.20;;;1.50;;
16689;SDS011;8458;52.220;9.884;2022-08-03T06:27:57;1.97;;;1.57;;
16689;SDS011;8458;52.220;9.884;2022-08-03T06:30:24;1.60;;;1.50;;
16689;SDS011;8458;52.220;9.884;2022-08-03T06:32:52;1.53;;;1.30;;
16689;SDS011;8458;52.220;9.884;2022-08-03T06:35:18;1.67;;;1.57;;
16689;SDS011;8458;52.220;9.884;2022-08-03T06:37:46;1.50;;;1.40;;
16689;SDS011;8458;52.220;9.884;2022-08-03T06:40:14;3.53;;;1.33;;
16689;SDS011;8458;52.220;9.884;2022-08-03T06:42:42;1.50;;;1.40;;
16689;SDS011;8458;52.220;9.884;2022-08-03T06:45:09;1.93;;;1.47;;
16689;SDS011;8458;52.220;9.884;2022-08-03T06:47:36;2.60;;;1.47;;
16689;SDS011;8458;52.220;9.884;2022-08-03T06:50:06;2.13;;;1.40;;
16689;SDS011;8458;52.220;9.884;2022-08-03T06:52:34;1.63;;;1.27;;
16689;SDS011;8458;52.220;9.884;2022-08-03T06:55:01;1.27;;;1.17;;
16689;SDS011;8458;52.220;9.884;2022-08-03T06:57:28;1.30;;;1.20;;
16689;SDS011;8458;52.220;9.884;2022-08-03T06:59:54;1.30;;;1.20;;
16689;SDS011;8458;52.220;9.884;2022-08-03T07:02:25;1.40;;;1.00;;
16689;SDS011;8458;52.220;9.884;2022-08-03T07:04:52;1.50;;;1.40;;
16689;SDS011;8458;52.220;9.884;2022-08-03T07:07:19;1.23;;;1.23;;
16689;SDS011;8458;52.220;9.884;2022-08-03T07:09:46;1.20;;;1.17;;
16689;SDS011;8458;52.220;9.884;2022-08-03T07:12:13;1.30;;;1.20;;
16689;SDS011;8458;52.220;9.884;2022-08-03T07:14:39;1.37;;;1.13;;
16689;SDS011;8458;52.220;9.884;2022-08-03T07:17:06;1.83;;;1.17;;
16689;SDS011;8458;52.220;9.884;2022-08-03T07:19:32;1.30;;;1.20;;
16689;SDS011;8458;52.220;9.884;2022-08-03T07:21:59;4.40;;;1.10;;
16689;SDS011;8458;52.220;9.884;2022-08-03T07:24:28;1.40;;;1.30;;
16689;SDS011;8458;52.220;9.884;2022-08-03T07:26:55;1.20;;;1.20;;
16689;SDS011;8458;52.220;9.884;2022-08-03T07:29:21;1.43;;;1.20;;
16689;SDS011;8458;52.220;9.884;2022-08-03T07:31:48;1.40;;;1.30;;
16689;SDS011;8458;52.220;9.884;2022-08-03T07:34:14;1.05;;;1.05;;
16689;SDS011;8458;52.220;9.884;2022-08-03T07:36:41;5.33;;;1.43;;
16689;SDS011;8458;52.220;9.884;2022-08-03T07:39:07;2.27;;;1.10;;
16689;SDS011;8458;52.220;9.884;2022-08-03T07:41:35;2.00;;;1.13;;
16689;SDS011;8458;52.220;9.884;2022-08-03T07:44:02;1.00;;;1.00;;
16689;SDS011;8458;52.220;9.884;2022-08-03T07:46:29;1.30;;;1.20;;
16689;SDS011;8458;52.220;9.884;2022-08-03T07:48:55;1.00;;;1.00;;
16689;SDS011;8458;52.220;9.884;2022-08-03T07:51:22;1.05;;;1.05;;
16689;SDS011;8458;52.220;9.884;2022-08-03T07:53:48;1.30;;;1.20;;
16689;SDS011;8458;52.220;9.884;2022-08-03T07:56:15;1.58;;;1.20;;
16689;SDS011;8458;52.220;9.884;2022-08-03T07:58:42;1.35;;;1.17;;
16689;SDS011;8458;52.220;9.884;2022-08-03T08:01:09;1.42;;;1.33;;
16689;SDS011;8458;52.220;9.884;2022-08-03T08:03:35;2.15;;;1.05;;
16689;SDS011;8458;52.220;9.884;2022-08-03T08:06:02;1.17;;;0.85;;
16689;SDS011;8458;52.220;9.884;2022-08-03T08:08:28;1.05;;;1.00;;
16689;SDS011;8458;52.220;9.884;2022-08-03T08:10:55;1.58;;;1.00;;
16689;SDS011;8458;52.220;9.884;2022-08-03T08:13:23;1.27;;;0.90;;
16689;SDS011;8458;52.220;9.884;2022-08-03T08:15:50;1.00;;;0.75;;
16689;SDS011;8458;52.220;9.884;2022-08-03T08:18:17;1.75;;;0.80;;
16689;SDS011;8458;52.220;9.884;2022-08-03T08:20:44;1.45;;;0.88;;
16689;SDS011;8458;52.220;9.884;2022-08-03T08:23:10;1.33;;;0.90;;
16689;SDS011;8458;52.220;9.884;2022-08-03T08:25:37;0.90;;;0.90;;
16689;SDS011;8458;52.220;9.884;2022-08-03T08:28:03;1.08;;;0.98;;
16689;SDS011;8458;52.220;9.884;2022-08-03T08:30:31;0.98;;;0.90;;
16689;SDS011;8458;52.220;9.884;2022-08-03T08:32:59;1.30;;;1.02;;
16689;SDS011;8458;52.220;9.884;2022-08-03T08:35:26;1.38;;;0.80;;
16689;SDS011;8458;52.220;9.884;2022-08-03T08:37:52;1.48;;;0.90;;
16689;SDS011;8458;52.220;9.884;2022-08-03T08:40:19;1.38;;;1.00;;
16689;SDS011;8458;52.220;9.884;2022-08-03T08:42:47;1.17;;;0.93;;
16689;SDS011;8458;52.220;9.884;2022-08-03T08:45:14;1.35;;;0.93;;
16689;SDS011;8458;52.220;9.884;2022-08-03T08:47:43;2.47;;;0.90;;
16689;SDS011;8458;52.220;9.884;2022-08-03T08:50:13;1.58;;;1.10;;
16689;SDS011;8458;52.220;9.884;2022-08-03T08:52:45;1.77;;;1.00;;
16689;SDS011;8458;52.220;9.884;2022-08-03T08:55:13;0.80;;;0.80;;
16689;SDS011;8458;52.220;9.884;2022-08-03T08:57:45;1.05;;;1.00;;
16689;SDS011;8458;52.220;9.884;2022-08-03T09:00:14;1.27;;;0.93;;
16689;SDS011;8458;52.220;9.884;2022-08-03T09:02:42;1.92;;;1.00;;
16689;SDS011;8458;52.220;9.884;2022-08-03T09:05:10;0.85;;;0.85;;
16689;SDS011;8458;52.220;9.884;2022-08-03T09:07:39;0.98;;;0.80;;
16689;SDS011;8458;52.220;9.884;2022-08-03T09:10:06;1.20;;;1.02;;
16689;SDS011;8458;52.220;9.884;2022-08-03T09:12:38;1.85;;;0.90;;
16689;SDS011;8458;52.220;9.884;2022-08-03T09:15:18;1.35;;;0.90;;
16689;SDS011;8458;52.220;9.884;2022-08-03T09:17:47;1.88;;;0.95;;
16689;SDS011;8458;52.220;9.884;2022-08-03T09:20:15;1.05;;;0.95;;
16689;SDS011;8458;52.220;9.884;2022-08-03T09:22:50;1.20;;;1.00;;
16689;SDS011;8458;52.220;9.884;2022-08-03T09:25:18;1.48;;;0.80;;
16689;SDS011;8458;52.220;9.884;2022-08-03T09:27:51;1.42;;;0.90;;
16689;SDS011;8458;52.220;9.884;2022-08-03T09:30:18;1.02;;;0.73;;
16689;SDS011;8458;52.220;9.884;2022-08-03T09:32:44;1.27;;;0.90;;
16689;SDS011;8458;52.220;9.884;2022-08-03T09:35:12;1.50;;;1.00;;
16689;SDS011;8458;52.220;9.884;2022-08-03T09:37:40;1.25;;;1.00;;
16689;SDS011;8458;52.220;9.884;2022-08-03T09:40:07;1.98;;;1.00;;
16689;SDS011;8458;52.220;9.884;2022-08-03T09:42:34;1.08;;;0.90;;
16689;SDS011;8458;52.220;9.884;2022-08-03T09:45:03;0.80;;;0.80;;
16689;SDS011;8458;52.220;9.884;2022-08-03T09:47:32;1.23;;;1.13;;
16689;SDS011;8458;52.220;9.884;2022-08-03T09:50:01;1.00;;;1.00;;
16689;SDS011;8458;52.220;9.884;2022-08-03T09:52:29;1.00;;;1.00;;
16689;SDS011;8458;52.220;9.884;2022-08-03T09:54:58;1.10;;;1.00;;
16689;SDS011;8458;52.220;9.884;2022-08-03T09:57:26;1.45;;;1.13;;
16689;SDS011;8458;52.220;9.884;2022-08-03T09:59:54;1.00;;;1.00;;
16689;SDS011;8458;52.220;9.884;2022-08-03T10:02:33;2.15;;;1.20;;
16689;SDS011;8458;52.220;9.884;2022-08-03T10:05:00;1.08;;;1.02;;
16689;SDS011;8458;52.220;9.884;2022-08-03T10:07:26;1.10;;;1.00;;
16689;SDS011;8458;52.220;9.884;2022-08-03T10:09:55;1.75;;;1.30;;
16689;SDS011;8458;52.220;9.884;2022-08-03T10:12:24;1.45;;;1.25;;
16689;SDS011;8458;52.220;9.884;2022-08-03T10:14:51;1.13;;;1.00;;
16689;SDS011;8458;52.220;9.884;2022-08-03T10:17:19;1.10;;;1.00;;
16689;SDS011;8458;52.220;9.884;2022-08-03T10:19:46;0.98;;;0.80;;
16689;SDS011;8458;52.220;9.884;2022-08-03T10:22:14;0.90;;;0.90;;
16689;SDS011;8458;52.220;9.884;2022-08-03T10:24:45;1.00;;;1.00;;
16689;SDS011;8458;52.220;9.884;2022-08-03T10:27:18;1.13;;;1.05;;
16689;SDS011;8458;52.220;9.884;2022-08-03T10:29:49;1.40;;;1.10;;
16689;SDS011;8458;52.220;9.884;2022-08-03T10:32:20;0.93;;;0.90;;
16689;SDS011;8458;52.220;9.884;2022-08-03T10:34:50;1.30;;;1.20;;
16689;SDS011;8458;52.220;9.884;2022-08-03T10:37:23;3.22;;;0.95;;
16689;SDS011;8458;52.220;9.884;2022-08-03T10:39:54;1.10;;;1.00;;
16689;SDS011;8458;52.220;9.884;2022-08-03T10:42:23;1.13;;;1.08;;
16689;SDS011;8458;52.220;9.884;2022-08-03T10:44:55;1.10;;;1.00;;
16689;SDS011;8458;52.220;9.884;2022-08-03T10:47:29;1.30;;;1.20;;
16689;SDS011;8458;52.220;9.884;2022-08-03T10:49:56;1.25;;;1.10;;
16689;SDS011;8458;52.220;9.884;2022-08-03T10:52:24;1.60;;;1.10;;
16689;SDS011;8458;52.220;9.884;2022-08-03T10:54:50;1.83;;;1.10;;
16689;SDS011;8458;52.220;9.884;2022-08-03T10:57:41;1.25;;;1.10;;
16689;SDS011;8458;52.220;9.884;2022-08-03T11:00:10;1.30;;;1.20;;
16689;SDS011;8458;52.220;9.884;2022-08-03T11:05:30;1.20;;;1.08;;
16689;SDS011;8458;52.220;9.884;2022-08-03T11:08:17;1.10;;;1.00;;
16689;SDS011;8458;52.220;9.884;2022-08-03T11:10:48;0.93;;;0.93;;
16689;SDS011;8458;52.220;9.884;2022-08-03T11:13:17;1.00;;;1.00;;
16689;SDS011;8458;52.220;9.884;2022-08-03T11:15:47;1.27;;;1.17;;
16689;SDS011;8458;52.220;9.884;2022-08-03T11:18:15;2.33;;;1.17;;
16689;SDS011;8458;52.220;9.884;2022-08-03T11:20:42;1.75;;;1.00;;
16689;SDS011;8458;52.220;9.884;2022-08-03T11:23:10;1.10;;;1.02;;
16689;SDS011;8458;52.220;9.884;2022-08-03T11:28:36;1.20;;;1.10;;
16689;SDS011;8458;52.220;9.884;2022-08-03T11:34:14;1.38;;;0.95;;
16689;SDS011;8458;52.220;9.884;2022-08-03T11:39:52;1.27;;;1.20;;
16689;SDS011;8458;52.220;9.884;2022-08-03T11:45:11;1.45;;;1.30;;
16689;SDS011;8458;52.220;9.884;2022-08-03T11:47:39;1.38;;;1.27;;
16689;SDS011;8458;52.220;9.884;2022-08-03T11:50:08;1.30;;;1.20;;
16689;SDS011;8458;52.220;9.884;2022-08-03T11:52:36;2.50;;;1.20;;
16689;SDS011;8458;52.220;9.884;2022-08-03T11:55:09;1.13;;;1.10;;
16689;SDS011;8458;52.220;9.884;2022-08-03T11:57:40;1.27;;;1.17;;
16689;SDS011;8458;52.220;9.884;2022-08-03T12:00:18;1.30;;;1.20;;
16689;SDS011;8458;52.220;9.884;2022-08-03T12:02:57;1.65;;;1.20;;
16689;SDS011;8458;52.220;9.884;2022-08-03T12:05:32;1.45;;;1.30;;
16689;SDS011;8458;52.220;9.884;2022-08-03T12:08:00;1.30;;;1.20;;
16689;SDS011;8458;52.220;9.884;2022-08-03T12:10:26;2.10;;;1.20;;
16689;SDS011;8458;52.220;9.884;2022-08-03T12:12:54;1.65;;;1.13;;
16689;SDS011;8458;52.220;9.884;2022-08-03T12:15:23;1.92;;;1.10;;
16689;SDS011;8458;52.220;9.884;2022-08-03T12:17:50;1.20;;;1.10;;
16689;SDS011;8458;52.220;9.884;2022-08-03T12:20:21;1.30;;;1.20;;
16689;SDS011;8458;52.220;9.884;2022-08-03T12:22:49;1.83;;;1.30;;
16689;SDS011;8458;52.220;9.884;2022-08-03T12:25:19;1.58;;;1.05;;
16689;SDS011;8458;52.220;9.884;2022-08-03T12:27:47;6.63;;;1.20;;
16689;SDS011;8458;52.220;9.884;2022-08-03T12:30:14;0.98;;;0.98;;
16689;SDS011;8458;52.220;9.884;2022-08-03T12:32:41;1.10;;;1.10;;
16689;SDS011;8458;52.220;9.884;2022-08-03T12:35:08;1.40;;;1.30;;
16689;SDS011;8458;52.220;9.884;2022-08-03T12:37:36;1.30;;;1.20;;
16689;SDS011;8458;52.220;9.884;2022-08-03T12:40:04;1.63;;;1.30;;
16689;SDS011;8458;52.220;9.884;2022-08-03T12:42:31;1.08;;;1.08;;
16689;SDS011;8458;52.220;9.884;2022-08-03T12:44:58;1.42;;;1.30;;
16689;SDS011;8458;52.220;9.884;2022-08-03T12:47:25;1.42;;;1.33;;
16689;SDS011;8458;52.220;9.884;2022-08-03T12:49:52;1.10;;;1.10;;
16689;SDS011;8458;52.220;9.884;2022-08-03T12:52:19;1.20;;;1.10;;
16689;SDS011;8458;52.220;9.884;2022-08-03T12:54:58;1.50;;;1.23;;
16689;SDS011;8458;52.220;9.884;2022-08-03T12:57:28;1.50;;;1.40;;
16689;SDS011;8458;52.220;9.884;2022-08-03T13:00:09;1.00;;;1.00;;
16689;SDS011;8458;52.220;9.884;2022-08-03T13:02:37;1.10;;;1.10;;
16689;SDS011;8458;52.220;9.884;2022-08-03T13:05:08;1.40;;;1.30;;
16689;SDS011;8458;52.220;9.884;2022-08-03T13:07:39;1.40;;;1.30;;
16689;SDS011;8458;52.220;9.884;2022-08-03T13:10:08;1.30;;;1.30;;
16689;SDS011;8458;52.220;9.884;2022-08-03T13:12:44;1.33;;;1.02;;
16689;SDS011;8458;52.220;9.884;2022-08-03T13:15:12;1.10;;;1.10;;
16689;SDS011;8458;52.220;9.884;2022-08-03T13:17:39;1.20;;;1.20;;
16689;SDS011;8458;52.220;9.884;2022-08-03T13:20:05;1.15;;;1.15;;
16689;SDS011;8458;52.220;9.884;2022-08-03T13:22:33;1.20;;;1.20;;
16689;SDS011;8458;52.220;9.884;2022-08-03T13:25:00;1.20;;;1.10;;
16689;SDS011;8458;52.220;9.884;2022-08-03T13:27:29;1.30;;;1.30;;
16689;SDS011;8458;52.220;9.884;2022-08-03T13:29:57;1.05;;;1.05;;
16689;SDS011;8458;52.220;9.884;2022-08-03T13:32:23;1.20;;;1.20;;
16689;SDS011;8458;52.220;9.884;2022-08-03T13:34:50;1.10;;;1.10;;
16689;SDS011;8458;52.220;9.884;2022-08-03T13:37:16;1.40;;;1.15;;
16689;SDS011;8458;52.220;9.884;2022-08-03T13:39:43;1.77;;;1.20;;
16689;SDS011;8458;52.220;9.884;2022-08-03T13:42:09;1.05;;;1.00;;
16689;SDS011;8458;52.220;9.884;2022-08-03T13:44:37;1.33;;;1.17;;
16689;SDS011;8458;52.220;9.884;2022-08-03T13:47:04;1.13;;;1.08;;
16689;SDS011;8458;52.220;9.884;2022-08-03T13:49:30;1.10;;;1.10;;
16689;SDS011;8458;52.220;9.884;2022-08-03T13:51:57;1.30;;;1.20;;
16689;SDS011;8458;52.220;9.884;2022-08-03T13:54:24;1.25;;;1.20;;
16689;SDS011;8458;52.220;9.884;2022-08-03T13:56:51;1.23;;;1.10;;
16689;SDS011;8458;52.220;9.884;2022-08-03T13:59:18;1.20;;;1.10;;
16689;SDS011;8458;52.220;9.884;2022-08-03T14:01:46;1.23;;;1.10;;
16689;SDS011;8458;52.220;9.884;2022-08-03T14:04:13;1.30;;;1.20;;
16689;SDS011;8458;52.220;9.884;2022-08-03T14:06:40;1.40;;;1.13;;
16689;SDS011;8458;52.220;9.884;2022-08-03T14:09:08;1.10;;;1.10;;
16689;SDS011;8458;52.220;9.884;2022-08-03T14:11:34;1.20;;;1.20;;
16689;SDS011;8458;52.220;9.884;2022-08-03T14:14:01;1.20;;;1.20;;
16689;SDS011;8458;52.220;9.884;2022-08-03T14:16:27;1.20;;;1.20;;
16689;SDS011;8458;52.220;9.884;2022-08-03T14:18:56;1.20;;;1.10;;
16689;SDS011;8458;52.220;9.884;2022-08-03T14:21:22;1.27;;;1.20;;
16689;SDS011;8458;52.220;9.884;2022-08-03T14:23:49;1.10;;;1.10;;
16689;SDS011;8458;52.220;9.884;2022-08-03T14:26:15;1.40;;;1.30;;
16689;SDS011;8458;52.220;9.884;2022-08-03T14:28:42;1.30;;;1.20;;
16689;SDS011;8458;52.220;9.884;2022-08-03T14:31:09;1.30;;;1.20;;
16689;SDS011;8458;52.220;9.884;2022-08-03T14:33:35;1.65;;;1.17;;
16689;SDS011;8458;52.220;9.884;2022-08-03T14:36:04;1.50;;;1.30;;
16689;SDS011;8458;52.220;9.884;2022-08-03T14:38:30;2.67;;;1.20;;
16689;SDS011;8458;52.220;9.884;2022-08-03T14:40:57;1.20;;;1.10;;
16689;SDS011;8458;52.220;9.884;2022-08-03T14:43:23;1.48;;;1.00;;
16689;SDS011;8458;52.220;9.884;2022-08-03T14:45:50;1.10;;;1.10;;
16689;SDS011;8458;52.220;9.884;2022-08-03T14:48:18;1.17;;;1.15;;
16689;SDS011;8458;52.220;9.884;2022-08-03T14:50:45;1.08;;;1.00;;
16689;SDS011;8458;52.220;9.884;2022-08-03T14:53:13;1.27;;;1.17;;
16689;SDS011;8458;52.220;9.884;2022-08-03T14:55:41;1.30;;;1.20;;
16689;SDS011;8458;52.220;9.884;2022-08-03T14:58:08;1.40;;;1.30;;
16689;SDS011;8458;52.220;9.884;2022-08-03T15:00:34;2.25;;;1.30;;
16689;SDS011;8458;52.220;9.884;2022-08-03T15:03:02;1.40;;;1.30;;
16689;SDS011;8458;52.220;9.884;2022-08-03T15:05:28;1.40;;;1.10;;
16689;SDS011;8458;52.220;9.884;2022-08-03T15:07:55;1.48;;;1.00;;
16689;SDS011;8458;52.220;9.884;2022-08-03T15:10:23;1.00;;;1.00;;
16689;SDS011;8458;52.220;9.884;2022-08-03T15:12:50;1.13;;;1.10;;
16689;SDS011;8458;52.220;9.884;2022-08-03T15:15:18;1.13;;;1.10;;
16689;SDS011;8458;52.220;9.884;2022-08-03T15:17:45;1.33;;;1.20;;
16689;SDS011;8458;52.220;9.884;2022-08-03T15:20:11;0.98;;;0.93;;
16689;SDS011;8458;52.220;9.884;2022-08-03T15:22:38;1.38;;;1.00;;